Terminal Aerodrome Forecast
Issued by NWS

Home | Current Version | Previous Version | Text Only | Print | Product List | Glossary On
Versions: 1 2 3 4 5 6 7 8 9 10 11 12 13 14 15 16 17 18 19 20 21 22
000
FTUS41 KBTV 161700
TAFMPV
TAF
KMPV 161720Z 1618/1718 VRB04KT P6SM SCT015 BKN025 OVC035
      TEMPO 1618/1620 BKN015
     FM162000 23005KT P6SM SCT025 BKN035
     FM170200 00000KT P6SM FEW250
     FM170500 00000KT 1/4SM FG VV001
     FM171300 VRB03KT P6SM SCT250=

USA.gov is the U.S. government's official web portal to all federal, state and local government web resources and services.